sensor_id;sensor_type;location;lat;lon;timestamp;temperature;humidity
32706;DHT22;19094;50.972;3.538;2023-02-01T00:01:43;11.50;65.80
32706;DHT22;19094;50.972;3.538;2023-02-01T00:04:08;11.40;65.60
32706;DHT22;19094;50.972;3.538;2023-02-01T00:06:34;11.50;65.60
32706;DHT22;19094;50.972;3.538;2023-02-01T00:09:00;11.40;65.60
32706;DHT22;19094;50.972;3.538;2023-02-01T00:11:26;11.50;65.60
32706;DHT22;19094;50.972;3.538;2023-02-01T00:13:52;11.50;65.60
32706;DHT22;19094;50.972;3.538;2023-02-01T00:16:26;11.50;65.60
32706;DHT22;19094;50.972;3.538;2023-02-01T00:18:58;11.40;65.50
32706;DHT22;19094;50.972;3.538;2023-02-01T00:21:24;11.40;65.50
32706;DHT22;19094;50.972;3.538;2023-02-01T00:23:50;11.40;65.40
32706;DHT22;19094;50.972;3.538;2023-02-01T00:26:18;11.40;65.30
32706;DHT22;19094;50.972;3.538;2023-02-01T00:28:44;11.40;65.20
32706;DHT22;19094;50.972;3.538;2023-02-01T00:31:10;11.50;65.30
32706;DHT22;19094;50.972;3.538;2023-02-01T00:33:36;11.40;65.10
32706;DHT22;19094;50.972;3.538;2023-02-01T00:36:04;11.40;65.20
32706;DHT22;19094;50.972;3.538;2023-02-01T00:38:32;11.40;65.20
32706;DHT22;19094;50.972;3.538;2023-02-01T00:41:04;11.40;65.20
32706;DHT22;19094;50.972;3.538;2023-02-01T00:43:31;11.40;64.90
32706;DHT22;19094;50.972;3.538;2023-02-01T00:45:57;11.40;65.00
32706;DHT22;19094;50.972;3.538;2023-02-01T00:48:24;11.40;65.00
32706;DHT22;19094;50.972;3.538;2023-02-01T00:50:49;11.30;65.10
32706;DHT22;19094;50.972;3.538;2023-02-01T00:53:15;11.30;65.10
32706;DHT22;19094;50.972;3.538;2023-02-01T00:55:47;11.40;65.00
32706;DHT22;19094;50.972;3.538;2023-02-01T00:58:13;11.40;64.90
32706;DHT22;19094;50.972;3.538;2023-02-01T01:00:39;11.40;64.90
32706;DHT22;19094;50.972;3.538;2023-02-01T01:03:05;11.30;64.80
32706;DHT22;19094;50.972;3.538;2023-02-01T01:05:56;11.40;64.90
32706;DHT22;19094;50.972;3.538;2023-02-01T01:08:23;11.30;64.70
32706;DHT22;19094;50.972;3.538;2023-02-01T01:10:49;11.30;64.90
32706;DHT22;19094;50.972;3.538;2023-02-01T01:13:15;11.30;64.80
32706;DHT22;19094;50.972;3.538;2023-02-01T01:15:40;11.20;65.00
32706;DHT22;19094;50.972;3.538;2023-02-01T01:18:07;11.30;64.90
32706;DHT22;19094;50.972;3.538;2023-02-01T01:20:38;11.30;64.90
32706;DHT22;19094;50.972;3.538;2023-02-01T01:23:04;11.30;64.90
32706;DHT22;19094;50.972;3.538;2023-02-01T01:25:30;11.30;64.80
32706;DHT22;19094;50.972;3.538;2023-02-01T01:27:56;11.20;64.90
32706;DHT22;19094;50.972;3.538;2023-02-01T01:30:22;11.20;65.00
32706;DHT22;19094;50.972;3.538;2023-02-01T01:32:47;11.20;64.90
32706;DHT22;19094;50.972;3.538;2023-02-01T01:35:13;11.20;65.10
32706;DHT22;19094;50.972;3.538;2023-02-01T01:37:39;11.20;65.20
32706;DHT22;19094;50.972;3.538;2023-02-01T01:40:06;11.20;65.10
32706;DHT22;19094;50.972;3.538;2023-02-01T01:42:42;11.20;65.30
32706;DHT22;19094;50.972;3.538;2023-02-01T01:47:49;11.20;65.30
32706;DHT22;19094;50.972;3.538;2023-02-01T01:50:19;11.10;65.30
32706;DHT22;19094;50.972;3.538;2023-02-01T01:52:49;11.10;65.30
32706;DHT22;19094;50.972;3.538;2023-02-01T01:55:17;11.20;65.30
32706;DHT22;19094;50.972;3.538;2023-02-01T01:57:48;11.10;65.10
32706;DHT22;19094;50.972;3.538;2023-02-01T02:00:17;11.20;65.30
32706;DHT22;19094;50.972;3.538;2023-02-01T02:02:48;11.20;65.40
32706;DHT22;19094;50.972;3.538;2023-02-01T02:05:15;11.20;65.30
32706;DHT22;19094;50.972;3.538;2023-02-01T02:07:46;11.10;65.20
32706;DHT22;19094;50.972;3.538;2023-02-01T02:10:15;11.10;65.20
32706;DHT22;19094;50.972;3.538;2023-02-01T02:12:43;11.10;65.20
32706;DHT22;19094;50.972;3.538;2023-02-01T02:15:12;11.20;65.20
32706;DHT22;19094;50.972;3.538;2023-02-01T02:18:06;11.20;65.10
32706;DHT22;19094;50.972;3.538;2023-02-01T02:20:59;11.10;65.00
32706;DHT22;19094;50.972;3.538;2023-02-01T02:37:45;11.10;65.00
32706;DHT22;19094;50.972;3.538;2023-02-01T02:48:54;11.10;64.90
32706;DHT22;19094;50.972;3.538;2023-02-01T02:51:25;11.10;64.90
32706;DHT22;19094;50.972;3.538;2023-02-01T02:54:24;11.00;64.90
32706;DHT22;19094;50.972;3.538;2023-02-01T02:57:13;11.00;65.00
32706;DHT22;19094;50.972;3.538;2023-02-01T03:00:00;11.00;65.10
32706;DHT22;19094;50.972;3.538;2023-02-01T03:02:47;11.00;65.10
32706;DHT22;19094;50.972;3.538;2023-02-01T03:05:36;11.00;65.10
32706;DHT22;19094;50.972;3.538;2023-02-01T03:16:28;11.10;64.80
32706;DHT22;19094;50.972;3.538;2023-02-01T03:21:40;11.00;64.80
32706;DHT22;19094;50.972;3.538;2023-02-01T03:26:48;11.10;64.80
32706;DHT22;19094;50.972;3.538;2023-02-01T03:29:18;11.10;64.70
32706;DHT22;19094;50.972;3.538;2023-02-01T03:31:46;11.10;64.60
32706;DHT22;19094;50.972;3.538;2023-02-01T03:34:12;11.10;64.60
32706;DHT22;19094;50.972;3.538;2023-02-01T03:36:39;11.10;65.40
32706;DHT22;19094;50.972;3.538;2023-02-01T03:39:15;11.10;64.70
32706;DHT22;19094;50.972;3.538;2023-02-01T03:41:45;11.10;64.50
32706;DHT22;19094;50.972;3.538;2023-02-01T03:47:13;11.10;64.60
32706;DHT22;19094;50.972;3.538;2023-02-01T03:50:07;11.10;64.50
32706;DHT22;19094;50.972;3.538;2023-02-01T03:52:45;11.10;64.50
32706;DHT22;19094;50.972;3.538;2023-02-01T03:55:15;11.00;64.50
32706;DHT22;19094;50.972;3.538;2023-02-01T03:57:50;11.00;64.60
32706;DHT22;19094;50.972;3.538;2023-02-01T04:00:21;11.00;64.50
32706;DHT22;19094;50.972;3.538;2023-02-01T04:02:47;11.10;64.50
32706;DHT22;19094;50.972;3.538;2023-02-01T04:05:13;11.00;64.60
32706;DHT22;19094;50.972;3.538;2023-02-01T04:07:39;11.00;64.50
32706;DHT22;19094;50.972;3.538;2023-02-01T04:10:05;11.10;65.30
32706;DHT22;19094;50.972;3.538;2023-02-01T04:12:31;11.00;64.60
32706;DHT22;19094;50.972;3.538;2023-02-01T04:14:56;11.00;64.50
32706;DHT22;19094;50.972;3.538;2023-02-01T04:17:22;11.00;64.70
32706;DHT22;19094;50.972;3.538;2023-02-01T04:19:48;11.00;64.50
32706;DHT22;19094;50.972;3.538;2023-02-01T04:22:13;11.00;64.30
32706;DHT22;19094;50.972;3.538;2023-02-01T04:24:39;11.00;64.50
32706;DHT22;19094;50.972;3.538;2023-02-01T04:27:05;11.00;64.60
32706;DHT22;19094;50.972;3.538;2023-02-01T04:29:30;10.90;64.60
32706;DHT22;19094;50.972;3.538;2023-02-01T04:31:56;10.90;64.70
32706;DHT22;19094;50.972;3.538;2023-02-01T04:34:21;10.90;64.70
32706;DHT22;19094;50.972;3.538;2023-02-01T04:36:48;10.80;64.80
32706;DHT22;19094;50.972;3.538;2023-02-01T04:39:14;10.80;64.80
32706;DHT22;19094;50.972;3.538;2023-02-01T04:41:40;10.90;64.80
32706;DHT22;19094;50.972;3.538;2023-02-01T04:44:06;10.80;64.70
32706;DHT22;19094;50.972;3.538;2023-02-01T04:46:32;10.80;64.80
32706;DHT22;19094;50.972;3.538;2023-02-01T04:48:57;10.90;64.80
32706;DHT22;19094;50.972;3.538;2023-02-01T04:51:23;10.80;64.80
32706;DHT22;19094;50.972;3.538;2023-02-01T04:53:48;10.80;64.60
32706;DHT22;19094;50.972;3.538;2023-02-01T04:56:14;10.80;64.80
32706;DHT22;19094;50.972;3.538;2023-02-01T04:58:40;10.80;64.80
32706;DHT22;19094;50.972;3.538;2023-02-01T05:01:06;10.90;64.80
32706;DHT22;19094;50.972;3.538;2023-02-01T05:03:33;10.80;64.90
32706;DHT22;19094;50.972;3.538;2023-02-01T05:05:59;10.80;64.70
32706;DHT22;19094;50.972;3.538;2023-02-01T05:08:26;10.80;64.80
32706;DHT22;19094;50.972;3.538;2023-02-01T05:10:52;10.80;64.80
32706;DHT22;19094;50.972;3.538;2023-02-01T05:13:18;10.80;64.80
32706;DHT22;19094;50.972;3.538;2023-02-01T05:16:03;10.80;64.70
32706;DHT22;19094;50.972;3.538;2023-02-01T05:18:28;10.80;64.70
32706;DHT22;19094;50.972;3.538;2023-02-01T05:20:54;10.80;64.80
32706;DHT22;19094;50.972;3.538;2023-02-01T05:23:20;10.90;64.80
32706;DHT22;19094;50.972;3.538;2023-02-01T05:25:45;10.80;64.50
32706;DHT22;19094;50.972;3.538;2023-02-01T05:28:11;10.80;64.60
32706;DHT22;19094;50.972;3.538;2023-02-01T05:30:37;10.80;64.60
32706;DHT22;19094;50.972;3.538;2023-02-01T05:33:03;10.80;64.50
32706;DHT22;19094;50.972;3.538;2023-02-01T05:35:29;10.80;64.50
32706;DHT22;19094;50.972;3.538;2023-02-01T05:37:55;10.80;64.60
32706;DHT22;19094;50.972;3.538;2023-02-01T05:40:21;10.80;64.60
32706;DHT22;19094;50.972;3.538;2023-02-01T05:42:47;10.80;64.60
32706;DHT22;19094;50.972;3.538;2023-02-01T05:45:13;10.80;64.60
32706;DHT22;19094;50.972;3.538;2023-02-01T05:47:39;10.80;64.60
32706;DHT22;19094;50.972;3.538;2023-02-01T05:50:05;10.70;64.80
32706;DHT22;19094;50.972;3.538;2023-02-01T05:52:31;10.80;64.70
32706;DHT22;19094;50.972;3.538;2023-02-01T05:54:57;10.80;64.70
32706;DHT22;19094;50.972;3.538;2023-02-01T05:57:23;10.70;64.70
32706;DHT22;19094;50.972;3.538;2023-02-01T05:59:48;10.80;64.70
32706;DHT22;19094;50.972;3.538;2023-02-01T06:02:15;10.80;64.60
32706;DHT22;19094;50.972;3.538;2023-02-01T06:04:41;10.80;64.70
32706;DHT22;19094;50.972;3.538;2023-02-01T06:07:08;10.80;64.70
32706;DHT22;19094;50.972;3.538;2023-02-01T06:09:35;10.70;64.60
32706;DHT22;19094;50.972;3.538;2023-02-01T06:12:01;10.70;64.60
32706;DHT22;19094;50.972;3.538;2023-02-01T06:14:27;10.70;64.60
32706;DHT22;19094;50.972;3.538;2023-02-01T06:16:54;10.70;64.80
32706;DHT22;19094;50.972;3.538;2023-02-01T06:19:19;10.70;64.80
32706;DHT22;19094;50.972;3.538;2023-02-01T06:21:45;10.70;64.80
32706;DHT22;19094;50.972;3.538;2023-02-01T06:24:12;10.70;64.70
32706;DHT22;19094;50.972;3.538;2023-02-01T06:26:38;10.70;64.60
32706;DHT22;19094;50.972;3.538;2023-02-01T06:29:06;10.70;64.60
32706;DHT22;19094;50.972;3.538;2023-02-01T06:31:32;10.80;64.80
32706;DHT22;19094;50.972;3.538;2023-02-01T06:33:58;10.80;64.60
32706;DHT22;19094;50.972;3.538;2023-02-01T06:36:24;10.70;64.50
32706;DHT22;19094;50.972;3.538;2023-02-01T06:38:49;10.70;64.60
32706;DHT22;19094;50.972;3.538;2023-02-01T06:41:15;10.70;64.60
32706;DHT22;19094;50.972;3.538;2023-02-01T06:43:41;10.70;64.70
32706;DHT22;19094;50.972;3.538;2023-02-01T06:46:09;10.70;64.50
32706;DHT22;19094;50.972;3.538;2023-02-01T06:48:36;10.70;64.60
32706;DHT22;19094;50.972;3.538;2023-02-01T06:51:02;10.70;64.60
32706;DHT22;19094;50.972;3.538;2023-02-01T06:53:28;10.70;64.70
32706;DHT22;19094;50.972;3.538;2023-02-01T06:55:55;10.70;64.60
32706;DHT22;19094;50.972;3.538;2023-02-01T06:58:21;10.70;64.70
32706;DHT22;19094;50.972;3.538;2023-02-01T07:00:48;10.80;65.60
32706;DHT22;19094;50.972;3.538;2023-02-01T07:03:14;10.70;65.00
32706;DHT22;19094;50.972;3.538;2023-02-01T07:05:39;10.70;64.80
32706;DHT22;19094;50.972;3.538;2023-02-01T07:08:05;10.80;65.90
32706;DHT22;19094;50.972;3.538;2023-02-01T07:10:31;10.70;65.30
32706;DHT22;19094;50.972;3.538;2023-02-01T07:12:59;10.80;65.20
32706;DHT22;19094;50.972;3.538;2023-02-01T07:15:25;10.70;65.00
32706;DHT22;19094;50.972;3.538;2023-02-01T07:17:51;10.70;65.60
32706;DHT22;19094;50.972;3.538;2023-02-01T07:20:19;10.70;65.00
32706;DHT22;19094;50.972;3.538;2023-02-01T07:22:44;10.70;65.00
32706;DHT22;19094;50.972;3.538;2023-02-01T07:25:10;10.70;64.90
32706;DHT22;19094;50.972;3.538;2023-02-01T07:27:36;10.60;65.00
32706;DHT22;19094;50.972;3.538;2023-02-01T07:30:03;10.70;65.30
32706;DHT22;19094;50.972;3.538;2023-02-01T07:32:29;10.70;65.00
32706;DHT22;19094;50.972;3.538;2023-02-01T07:34:56;10.80;66.50
32706;DHT22;19094;50.972;3.538;2023-02-01T07:37:21;10.80;65.60
32706;DHT22;19094;50.972;3.538;2023-02-01T07:39:47;10.70;65.30
32706;DHT22;19094;50.972;3.538;2023-02-01T07:42:13;10.70;65.50
32706;DHT22;19094;50.972;3.538;2023-02-01T07:44:38;10.70;65.50
32706;DHT22;19094;50.972;3.538;2023-02-01T07:47:04;10.70;65.50
32706;DHT22;19094;50.972;3.538;2023-02-01T07:49:30;10.70;66.00
32706;DHT22;19094;50.972;3.538;2023-02-01T07:51:55;10.70;66.30
32706;DHT22;19094;50.972;3.538;2023-02-01T07:54:21;10.70;65.80
32706;DHT22;19094;50.972;3.538;2023-02-01T07:56:47;10.70;65.60
32706;DHT22;19094;50.972;3.538;2023-02-01T07:59:12;10.70;65.30
32706;DHT22;19094;50.972;3.538;2023-02-01T08:01:38;10.70;65.30
32706;DHT22;19094;50.972;3.538;2023-02-01T08:04:04;10.70;65.30
32706;DHT22;19094;50.972;3.538;2023-02-01T08:06:32;10.70;65.10
32706;DHT22;19094;50.972;3.538;2023-02-01T08:08:59;10.70;65.00
32706;DHT22;19094;50.972;3.538;2023-02-01T08:11:26;10.70;65.00
32706;DHT22;19094;50.972;3.538;2023-02-01T08:13:51;10.70;65.10
32706;DHT22;19094;50.972;3.538;2023-02-01T08:16:19;10.70;64.90
32706;DHT22;19094;50.972;3.538;2023-02-01T08:18:46;10.70;64.90
32706;DHT22;19094;50.972;3.538;2023-02-01T08:21:14;10.70;64.90
32706;DHT22;19094;50.972;3.538;2023-02-01T08:23:41;10.70;64.80
32706;DHT22;19094;50.972;3.538;2023-02-01T08:26:14;10.70;64.90
32706;DHT22;19094;50.972;3.538;2023-02-01T08:28:42;10.70;64.80
32706;DHT22;19094;50.972;3.538;2023-02-01T08:31:11;10.70;64.80
32706;DHT22;19094;50.972;3.538;2023-02-01T08:33:37;10.70;64.90
32706;DHT22;19094;50.972;3.538;2023-02-01T08:36:04;10.70;64.70
32706;DHT22;19094;50.972;3.538;2023-02-01T08:38:31;10.70;64.60
32706;DHT22;19094;50.972;3.538;2023-02-01T08:40:57;10.70;64.60
32706;DHT22;19094;50.972;3.538;2023-02-01T08:43:23;10.80;64.70
32706;DHT22;19094;50.972;3.538;2023-02-01T08:45:50;10.70;64.60
32706;DHT22;19094;50.972;3.538;2023-02-01T08:48:16;10.80;64.60
32706;DHT22;19094;50.972;3.538;2023-02-01T08:50:41;10.80;64.60
32706;DHT22;19094;50.972;3.538;2023-02-01T08:53:08;10.80;64.60
32706;DHT22;19094;50.972;3.538;2023-02-01T08:55:33;10.70;64.60
32706;DHT22;19094;50.972;3.538;2023-02-01T08:57:59;10.80;64.50
32706;DHT22;19094;50.972;3.538;2023-02-01T09:00:25;10.80;64.50
32706;DHT22;19094;50.972;3.538;2023-02-01T09:02:50;10.80;64.60
32706;DHT22;19094;50.972;3.538;2023-02-01T09:05:16;10.80;64.40
32706;DHT22;19094;50.972;3.538;2023-02-01T09:07:44;10.80;64.50
32706;DHT22;19094;50.972;3.538;2023-02-01T09:10:10;10.90;64.40
32706;DHT22;19094;50.972;3.538;2023-02-01T09:12:36;10.80;64.30
32706;DHT22;19094;50.972;3.538;2023-02-01T09:15:03;10.90;64.30
32706;DHT22;19094;50.972;3.538;2023-02-01T09:17:31;10.90;64.30
32706;DHT22;19094;50.972;3.538;2023-02-01T09:19:57;10.90;64.10
32706;DHT22;19094;50.972;3.538;2023-02-01T09:22:22;11.00;63.90
32706;DHT22;19094;50.972;3.538;2023-02-01T09:24:48;11.00;64.00
32706;DHT22;19094;50.972;3.538;2023-02-01T09:27:14;11.10;64.30
32706;DHT22;19094;50.972;3.538;2023-02-01T09:29:39;11.00;64.20
32706;DHT22;19094;50.972;3.538;2023-02-01T09:32:05;11.00;64.10
32706;DHT22;19094;50.972;3.538;2023-02-01T09:34:32;11.00;64.10
32706;DHT22;19094;50.972;3.538;2023-02-01T09:36:58;11.00;63.90
32706;DHT22;19094;50.972;3.538;2023-02-01T09:39:24;11.00;64.00
32706;DHT22;19094;50.972;3.538;2023-02-01T09:42:16;11.00;64.00
32706;DHT22;19094;50.972;3.538;2023-02-01T09:45:21;11.10;63.90
32706;DHT22;19094;50.972;3.538;2023-02-01T09:47:53;11.10;63.80
32706;DHT22;19094;50.972;3.538;2023-02-01T09:50:44;11.10;63.80
32706;DHT22;19094;50.972;3.538;2023-02-01T09:53:18;11.10;63.70
32706;DHT22;19094;50.972;3.538;2023-02-01T09:55:48;11.10;63.60
32706;DHT22;19094;50.972;3.538;2023-02-01T09:58:31;11.20;63.60
32706;DHT22;19094;50.972;3.538;2023-02-01T10:01:00;11.20;63.30
32706;DHT22;19094;50.972;3.538;2023-02-01T10:03:32;11.20;63.20
32706;DHT22;19094;50.972;3.538;2023-02-01T10:09:06;11.30;62.90
32706;DHT22;19094;50.972;3.538;2023-02-01T10:17:23;11.30;62.90
32706;DHT22;19094;50.972;3.538;2023-02-01T10:20:22;11.30;62.90
32706;DHT22;19094;50.972;3.538;2023-02-01T10:23:02;11.40;63.00
32706;DHT22;19094;50.972;3.538;2023-02-01T10:28:18;11.40;63.50
32706;DHT22;19094;50.972;3.538;2023-02-01T10:30:48;11.40;62.80
32706;DHT22;19094;50.972;3.538;2023-02-01T10:33:36;11.40;62.70
32706;DHT22;19094;50.972;3.538;2023-02-01T10:36:05;11.50;62.40
32706;DHT22;19094;50.972;3.538;2023-02-01T10:38:35;11.50;62.40
32706;DHT22;19094;50.972;3.538;2023-02-01T10:41:08;11.50;62.30
32706;DHT22;19094;50.972;3.538;2023-02-01T10:43:37;11.60;61.60
32706;DHT22;19094;50.972;3.538;2023-02-01T10:46:04;11.70;61.60
32706;DHT22;19094;50.972;3.538;2023-02-01T10:48:31;11.90;60.60
32706;DHT22;19094;50.972;3.538;2023-02-01T10:51:06;11.90;61.00
32706;DHT22;19094;50.972;3.538;2023-02-01T10:53:38;11.90;61.20
32706;DHT22;19094;50.972;3.538;2023-02-01T10:56:07;11.80;61.40
32706;DHT22;19094;50.972;3.538;2023-02-01T10:58:35;11.80;61.20
32706;DHT22;19094;50.972;3.538;2023-02-01T11:01:15;11.90;60.50
32706;DHT22;19094;50.972;3.538;2023-02-01T11:03:42;12.10;59.70
32706;DHT22;19094;50.972;3.538;2023-02-01T11:06:39;12.30;58.90
32706;DHT22;19094;50.972;3.538;2023-02-01T11:11:53;12.90;56.20
32706;DHT22;19094;50.972;3.538;2023-02-01T11:14:39;13.20;55.60
32706;DHT22;19094;50.972;3.538;2023-02-01T11:19:45;13.60;54.60
32706;DHT22;19094;50.972;3.538;2023-02-01T11:22:12;13.70;54.10
32706;DHT22;19094;50.972;3.538;2023-02-01T11:24:41;13.90;53.70
32706;DHT22;19094;50.972;3.538;2023-02-01T11:27:16;14.00;53.60
32706;DHT22;19094;50.972;3.538;2023-02-01T11:29:45;14.10;52.50
32706;DHT22;19094;50.972;3.538;2023-02-01T11:32:13;14.30;52.30
32706;DHT22;19094;50.972;3.538;2023-02-01T11:34:45;14.40;51.60
32706;DHT22;19094;50.972;3.538;2023-02-01T11:37:27;14.50;51.80
32706;DHT22;19094;50.972;3.538;2023-02-01T11:39:59;14.50;50.80
32706;DHT22;19094;50.972;3.538;2023-02-01T11:42:26;14.50;51.00
32706;DHT22;19094;50.972;3.538;2023-02-01T11:47:45;14.40;52.20
32706;DHT22;19094;50.972;3.538;2023-02-01T11:50:25;14.50;51.40
32706;DHT22;19094;50.972;3.538;2023-02-01T12:06:13;15.30;49.70
32706;DHT22;19094;50.972;3.538;2023-02-01T12:11:58;15.60;48.20
32706;DHT22;19094;50.972;3.538;2023-02-01T12:17:33;15.90;48.90
32706;DHT22;19094;50.972;3.538;2023-02-01T12:26:00;16.40;46.90
32706;DHT22;19094;50.972;3.538;2023-02-01T12:36:51;16.80;46.40
32706;DHT22;19094;50.972;3.538;2023-02-01T12:39:41;16.70;47.00
32706;DHT22;19094;50.972;3.538;2023-02-01T12:42:19;16.70;46.20
32706;DHT22;19094;50.972;3.538;2023-02-01T12:48:00;16.90;46.20
32706;DHT22;19094;50.972;3.538;2023-02-01T12:50:43;17.00;46.10
32706;DHT22;19094;50.972;3.538;2023-02-01T12:55:58;17.20;45.80
32706;DHT22;19094;50.972;3.538;2023-02-01T12:58:38;17.40;44.80
32706;DHT22;19094;50.972;3.538;2023-02-01T13:01:09;17.70;44.60
32706;DHT22;19094;50.972;3.538;2023-02-01T13:06:29;17.90;43.90
32706;DHT22;19094;50.972;3.538;2023-02-01T13:09:19;18.00;44.20
32706;DHT22;19094;50.972;3.538;2023-02-01T13:11:49;18.20;43.10
32706;DHT22;19094;50.972;3.538;2023-02-01T13:16:54;18.30;43.10
32706;DHT22;19094;50.972;3.538;2023-02-01T13:20:25;18.40;42.90
32706;DHT22;19094;50.972;3.538;2023-02-01T13:22:50;18.50;42.50
32706;DHT22;19094;50.972;3.538;2023-02-01T13:25:29;18.50;42.30
32706;DHT22;19094;50.972;3.538;2023-02-01T13:28:00;18.30;42.70
32706;DHT22;19094;50.972;3.538;2023-02-01T13:30:37;18.10;42.90
32706;DHT22;19094;50.972;3.538;2023-02-01T13:36:19;17.80;43.20
32706;DHT22;19094;50.972;3.538;2023-02-01T13:41:56;17.20;44.60
32706;DHT22;19094;50.972;3.538;2023-02-01T13:44:32;17.10;45.30
32706;DHT22;19094;50.972;3.538;2023-02-01T13:47:02;17.00;45.40
32706;DHT22;19094;50.972;3.538;2023-02-01T13:49:32;17.00;45.70
32706;DHT22;19094;50.972;3.538;2023-02-01T13:51:59;17.10;45.90
32706;DHT22;19094;50.972;3.538;2023-02-01T13:56:58;17.40;45.70
32706;DHT22;19094;50.972;3.538;2023-02-01T14:13:22;16.90;46.00
32706;DHT22;19094;50.972;3.538;2023-02-01T14:42:27;15.10;51.10
32706;DHT22;19094;50.972;3.538;2023-02-01T14:44:56;14.90;51.60
32706;DHT22;19094;50.972;3.538;2023-02-01T14:52:19;14.30;54.00
32706;DHT22;19094;50.972;3.538;2023-02-01T14:54:51;14.20;54.10
32706;DHT22;19094;50.972;3.538;2023-02-01T14:57:20;14.20;53.90
32706;DHT22;19094;50.972;3.538;2023-02-01T14:59:48;14.20;54.30
32706;DHT22;19094;50.972;3.538;2023-02-01T15:02:21;14.10;54.40
32706;DHT22;19094;50.972;3.538;2023-02-01T15:04:57;14.10;54.40
32706;DHT22;19094;50.972;3.538;2023-02-01T15:07:25;13.90;54.60
32706;DHT22;19094;50.972;3.538;2023-02-01T15:09:52;13.80;55.30
32706;DHT22;19094;50.972;3.538;2023-02-01T15:12:26;13.80;55.30
32706;DHT22;19094;50.972;3.538;2023-02-01T15:15:12;13.80;55.40
32706;DHT22;19094;50.972;3.538;2023-02-01T15:17:39;13.70;55.90
32706;DHT22;19094;50.972;3.538;2023-02-01T15:20:17;13.60;56.30
32706;DHT22;19094;50.972;3.538;2023-02-01T15:22:52;13.60;56.00
32706;DHT22;19094;50.972;3.538;2023-02-01T15:25:21;13.50;56.40
32706;DHT22;19094;50.972;3.538;2023-02-01T15:27:47;13.50;56.30
32706;DHT22;19094;50.972;3.538;2023-02-01T15:30:19;13.50;56.40
32706;DHT22;19094;50.972;3.538;2023-02-01T15:32:45;13.60;56.30
32706;DHT22;19094;50.972;3.538;2023-02-01T15:35:34;13.50;56.50
32706;DHT22;19094;50.972;3.538;2023-02-01T15:41:06;13.40;56.60
32706;DHT22;19094;50.972;3.538;2023-02-01T15:43:39;13.50;56.70
32706;DHT22;19094;50.972;3.538;2023-02-01T15:46:17;13.40;56.80
32706;DHT22;19094;50.972;3.538;2023-02-01T15:48:50;13.40;57.00
32706;DHT22;19094;50.972;3.538;2023-02-01T15:51:20;13.30;57.20
32706;DHT22;19094;50.972;3.538;2023-02-01T15:53:58;13.30;57.20
32706;DHT22;19094;50.972;3.538;2023-02-01T15:56:27;13.20;57.40
32706;DHT22;19094;50.972;3.538;2023-02-01T15:58:56;13.10;57.70
32706;DHT22;19094;50.972;3.538;2023-02-01T16:01:23;13.10;57.80
32706;DHT22;19094;50.972;3.538;2023-02-01T16:04:02;13.20;57.90
32706;DHT22;19094;50.972;3.538;2023-02-01T16:06:30;13.10;58.00
32706;DHT22;19094;50.972;3.538;2023-02-01T16:09:01;13.10;58.10
32706;DHT22;19094;50.972;3.538;2023-02-01T16:11:30;13.10;58.00
32706;DHT22;19094;50.972;3.538;2023-02-01T16:13:57;13.10;58.00
32706;DHT22;19094;50.972;3.538;2023-02-01T16:16:25;13.10;58.10
32706;DHT22;19094;50.972;3.538;2023-02-01T16:18:50;13.10;58.10
32706;DHT22;19094;50.972;3.538;2023-02-01T16:21:16;13.00;58.40
32706;DHT22;19094;50.972;3.538;2023-02-01T16:23:42;13.00;58.50
32706;DHT22;19094;50.972;3.538;2023-02-01T16:26:07;13.00;58.60
32706;DHT22;19094;50.972;3.538;2023-02-01T16:28:33;13.00;58.60
32706;DHT22;19094;50.972;3.538;2023-02-01T16:31:00;13.00;58.70
32706;DHT22;19094;50.972;3.538;2023-02-01T16:33:26;13.00;58.70
32706;DHT22;19094;50.972;3.538;2023-02-01T16:35:52;13.00;58.40
32706;DHT22;19094;50.972;3.538;2023-02-01T16:38:22;13.10;58.50
32706;DHT22;19094;50.972;3.538;2023-02-01T16:40:49;13.10;58.50
32706;DHT22;19094;50.972;3.538;2023-02-01T16:43:18;13.10;58.40
32706;DHT22;19094;50.972;3.538;2023-02-01T16:45:45;13.10;58.40
32706;DHT22;19094;50.972;3.538;2023-02-01T16:48:34;13.10;58.40
32706;DHT22;19094;50.972;3.538;2023-02-01T16:51:03;13.00;58.50
32706;DHT22;19094;50.972;3.538;2023-02-01T16:53:32;13.10;58.50
32706;DHT22;19094;50.972;3.538;2023-02-01T16:55:57;13.10;58.30
32706;DHT22;19094;50.972;3.538;2023-02-01T16:58:24;13.10;58.60
32706;DHT22;19094;50.972;3.538;2023-02-01T17:00:50;13.00;58.60
32706;DHT22;19094;50.972;3.538;2023-02-01T17:03:17;13.00;58.70
32706;DHT22;19094;50.972;3.538;2023-02-01T17:05:55;13.00;58.60
32706;DHT22;19094;50.972;3.538;2023-02-01T17:08:34;13.10;58.70
32706;DHT22;19094;50.972;3.538;2023-02-01T17:11:01;13.00;58.80
32706;DHT22;19094;50.972;3.538;2023-02-01T17:13:27;13.00;58.70
32706;DHT22;19094;50.972;3.538;2023-02-01T17:15:58;13.00;58.80
32706;DHT22;19094;50.972;3.538;2023-02-01T17:18:24;13.00;58.70
32706;DHT22;19094;50.972;3.538;2023-02-01T17:20:59;13.00;58.90
32706;DHT22;19094;50.972;3.538;2023-02-01T17:23:26;13.00;58.90
32706;DHT22;19094;50.972;3.538;2023-02-01T17:25:52;13.00;58.70
32706;DHT22;19094;50.972;3.538;2023-02-01T17:28:18;13.10;58.80
32706;DHT22;19094;50.972;3.538;2023-02-01T17:30:44;13.10;58.80
32706;DHT22;19094;50.972;3.538;2023-02-01T17:33:29;13.10;58.80
32706;DHT22;19094;50.972;3.538;2023-02-01T17:35:55;13.00;59.00
32706;DHT22;19094;50.972;3.538;2023-02-01T17:38:22;13.00;59.00
32706;DHT22;19094;50.972;3.538;2023-02-01T17:40:49;13.00;59.00
32706;DHT22;19094;50.972;3.538;2023-02-01T17:43:22;13.00;59.10
32706;DHT22;19094;50.972;3.538;2023-02-01T17:45:54;12.90;59.10
32706;DHT22;19094;50.972;3.538;2023-02-01T17:48:21;12.90;59.30
32706;DHT22;19094;50.972;3.538;2023-02-01T17:50:48;12.90;59.40
32706;DHT22;19094;50.972;3.538;2023-02-01T17:53:23;12.90;59.50
32706;DHT22;19094;50.972;3.538;2023-02-01T17:55:50;12.90;60.10
32706;DHT22;19094;50.972;3.538;2023-02-01T17:58:17;13.00;59.70
32706;DHT22;19094;50.972;3.538;2023-02-01T18:00:44;13.00;59.40
32706;DHT22;19094;50.972;3.538;2023-02-01T18:03:25;13.00;59.40
32706;DHT22;19094;50.972;3.538;2023-02-01T18:05:53;12.90;59.70
32706;DHT22;19094;50.972;3.538;2023-02-01T18:08:21;12.90;59.70
32706;DHT22;19094;50.972;3.538;2023-02-01T18:10:52;12.80;59.80
32706;DHT22;19094;50.972;3.538;2023-02-01T18:13:19;12.90;59.70
32706;DHT22;19094;50.972;3.538;2023-02-01T18:15:44;12.80;59.80
32706;DHT22;19094;50.972;3.538;2023-02-01T18:18:10;12.80;59.80
32706;DHT22;19094;50.972;3.538;2023-02-01T18:20:39;12.80;60.00
32706;DHT22;19094;50.972;3.538;2023-02-01T18:23:08;12.70;60.10
32706;DHT22;19094;50.972;3.538;2023-02-01T18:25:36;12.80;60.10
32706;DHT22;19094;50.972;3.538;2023-02-01T18:28:03;12.90;59.80
32706;DHT22;19094;50.972;3.538;2023-02-01T18:30:30;12.80;59.90